Time;durP1;ratioP1;P1;durP2;ratioP2;P2;SDS_P1;SDS_P2;PMS_P1;PMS_P2;Temp;Humidity;BMP_temperature;BMP_pressure;BME280_temperature;BME280_humidity;BME280_pressure;Samples;Min_cycle;Max_cycle;Signal;HPM_P1;HPM_P2
2023/06/28 00:00:18;;;;;;;6.97;1.20;;;16.90;99.90;;;;;;4969659;28;20058;-35
2023/06/28 00:02:45;;;;;;;8.07;1.10;;;16.90;99.90;;;;;;4969516;28;20065;-35
2023/06/28 00:05:12;;;;;;;7.85;1.00;;;16.90;99.90;;;;;;4968832;28;20058;-35
2023/06/28 00:07:38;;;;;;;4.35;0.52;;;16.90;99.90;;;;;;4967733;28;20055;-35
2023/06/28 00:10:04;;;;;;;2.78;0.70;;;16.90;99.90;;;;;;4968266;28;20077;-35
2023/06/28 00:12:31;;;;;;;4.32;0.80;;;16.90;99.90;;;;;;4968387;28;20066;-35
2023/06/28 00:14:58;;;;;;;2.78;0.80;;;16.90;99.90;;;;;;4963886;28;20059;-35
2023/06/28 00:17:27;;;;;;;3.10;1.00;;;16.90;99.90;;;;;;4971077;28;20066;-35
2023/06/28 00:19:57;;;;;;;2.92;0.80;;;16.90;99.90;;;;;;4967463;28;20077;-34
2023/06/28 00:22:28;;;;;;;2.63;0.70;;;16.80;99.90;;;;;;4971544;28;20086;-35
2023/06/28 00:24:55;;;;;;;3.42;0.73;;;16.70;99.90;;;;;;4966407;28;20055;-35
2023/06/28 00:27:21;;;;;;;3.50;0.90;;;16.70;99.90;;;;;;4968262;28;20074;-35
2023/06/28 00:29:46;;;;;;;5.25;1.15;;;16.60;99.90;;;;;;4965104;28;20062;-35
2023/06/28 00:32:12;;;;;;;4.13;1.05;;;16.60;99.90;;;;;;4964129;28;20058;-35
2023/06/28 00:34:38;;;;;;;2.88;1.10;;;16.50;99.90;;;;;;4961450;28;20081;-35
2023/06/28 00:37:03;;;;;;;3.38;0.85;;;16.50;99.90;;;;;;4962440;28;20050;-35
2023/06/28 00:39:29;;;;;;;3.58;0.88;;;16.40;99.90;;;;;;4966870;28;20574;-35
2023/06/28 00:41:55;;;;;;;3.42;0.90;;;16.40;99.90;;;;;;4966873;28;20055;-35
2023/06/28 00:44:21;;;;;;;4.75;1.10;;;16.50;99.90;;;;;;4962455;28;20101;-35
2023/06/28 00:46:48;;;;;;;4.28;1.65;;;16.40;99.90;;;;;;4965919;28;20078;-35
2023/06/28 00:49:14;;;;;;;4.40;1.45;;;16.40;99.90;;;;;;4969560;28;20421;-35
2023/06/28 00:51:41;;;;;;;1.63;0.73;;;16.40;99.90;;;;;;4968349;28;20120;-35
2023/06/28 00:54:06;;;;;;;3.20;1.15;;;16.30;99.90;;;;;;4968614;28;20134;-35
2023/06/28 00:56:33;;;;;;;2.28;0.85;;;16.30;99.90;;;;;;4966851;28;20078;-35
2023/06/28 00:58:59;;;;;;;3.22;0.98;;;16.30;99.90;;;;;;4966576;28;20150;-35
2023/06/28 01:01:25;;;;;;;3.53;1.15;;;16.30;99.90;;;;;;4962584;28;20501;-35
2023/06/28 01:03:53;;;;;;;3.67;1.10;;;16.20;99.90;;;;;;4967508;28;20043;-35
2023/06/28 01:06:21;;;;;;;3.95;1.13;;;16.20;99.90;;;;;;4965508;28;20058;-35
2023/06/28 01:08:47;;;;;;;3.63;1.00;;;16.20;99.90;;;;;;4965831;28;20042;-35
2023/06/28 01:11:13;;;;;;;4.60;1.60;;;16.20;99.90;;;;;;4965130;28;20724;-36
2023/06/28 01:13:39;;;;;;;3.53;0.82;;;16.30;99.90;;;;;;4967140;28;20070;-35
2023/06/28 01:16:05;;;;;;;2.50;1.00;;;16.20;99.90;;;;;;4966070;28;20159;-35
2023/06/28 01:18:33;;;;;;;2.95;0.90;;;16.20;99.90;;;;;;4965153;28;20050;-35
2023/06/28 01:21:02;;;;;;;4.18;1.00;;;16.10;99.90;;;;;;4961449;28;20057;-35
2023/06/28 01:23:28;;;;;;;3.28;1.02;;;16.10;99.90;;;;;;4966173;28;20073;-35
2023/06/28 01:25:55;;;;;;;4.68;1.02;;;16.10;99.90;;;;;;4963479;28;20062;-35
2023/06/28 01:28:21;;;;;;;4.03;1.50;;;16.10;99.90;;;;;;4970503;28;20523;-35
2023/06/28 01:30:48;;;;;;;4.40;1.00;;;16.00;99.90;;;;;;4969841;28;20146;-35
2023/06/28 01:33:17;;;;;;;4.97;1.23;;;15.90;99.90;;;;;;4966676;28;20059;-35
2023/06/28 01:35:43;;;;;;;4.05;1.40;;;16.00;99.90;;;;;;4961130;28;20051;-35
2023/06/28 01:38:10;;;;;;;2.97;1.30;;;16.00;99.90;;;;;;4968850;28;20105;-35
2023/06/28 01:40:37;;;;;;;4.70;1.48;;;16.00;99.90;;;;;;4966942;28;20066;-35
2023/06/28 01:43:06;;;;;;;6.45;1.55;;;16.00;99.90;;;;;;4970026;28;20047;-35
2023/06/28 01:45:35;;;;;;;2.70;1.20;;;15.90;99.90;;;;;;4964806;28;20105;-36
2023/06/28 01:48:02;;;;;;;5.22;2.10;;;15.90;99.90;;;;;;4964109;28;20493;-35
2023/06/28 01:50:31;;;;;;;3.33;1.52;;;15.90;99.90;;;;;;4964287;28;20051;-35
2023/06/28 01:53:03;;;;;;;4.63;1.50;;;16.00;99.90;;;;;;4964885;28;20132;-36
2023/06/28 01:55:29;;;;;;;4.03;1.38;;;16.00;99.90;;;;;;4963888;28;20069;-35
2023/06/28 01:57:56;;;;;;;4.25;1.58;;;16.00;99.90;;;;;;4967657;28;20055;-35
2023/06/28 02:00:22;;;;;;;5.40;2.10;;;16.00;99.90;;;;;;4963719;28;20082;-35
2023/06/28 02:02:48;;;;;;;3.17;1.60;;;16.00;99.90;;;;;;4962903;28;20508;-35
2023/06/28 02:05:14;;;;;;;2.78;1.40;;;16.00;99.90;;;;;;4968452;28;20057;-35
2023/06/28 02:07:39;;;;;;;4.22;1.75;;;16.00;99.90;;;;;;4967115;28;20528;-34
2023/06/28 02:10:06;;;;;;;3.83;1.85;;;16.10;99.90;;;;;;4963824;28;20138;-35
2023/06/28 02:12:32;;;;;;;6.22;1.63;;;16.10;99.90;;;;;;4962944;28;20109;-35
2023/06/28 02:14:57;;;;;;;3.53;1.73;;;16.10;99.90;;;;;;4961339;28;20054;-36
2023/06/28 02:17:23;;;;;;;6.43;1.55;;;16.10;99.90;;;;;;4964478;28;20051;-35
2023/06/28 02:19:49;;;;;;;4.00;1.60;;;16.00;99.90;;;;;;4962799;28;20050;-35
2023/06/28 02:22:19;;;;;;;3.20;1.52;;;16.00;99.90;;;;;;4967369;28;20053;-35
2023/06/28 02:24:44;;;;;;;2.97;1.48;;;16.00;99.90;;;;;;4959133;28;20053;-34
2023/06/28 02:27:10;;;;;;;3.75;1.70;;;16.00;99.90;;;;;;4964076;28;20431;-35
2023/06/28 02:29:37;;;;;;;3.42;1.75;;;16.00;99.90;;;;;;4965592;28;20113;-35
2023/06/28 02:32:03;;;;;;;4.63;1.75;;;16.00;99.90;;;;;;4968110;28;20050;-35
2023/06/28 02:34:29;;;;;;;3.67;1.50;;;16.10;99.90;;;;;;4946368;28;20404;-35
2023/06/28 02:36:56;;;;;;;3.72;2.40;;;16.10;99.90;;;;;;4968057;28;20054;-35
2023/06/28 02:39:22;;;;;;;5.93;1.98;;;16.10;99.90;;;;;;4967475;28;20059;-35
2023/06/28 02:41:48;;;;;;;5.45;1.85;;;16.00;99.90;;;;;;4960585;28;20058;-35
2023/06/28 02:44:15;;;;;;;4.70;1.80;;;16.00;99.90;;;;;;4966738;28;20051;-35
2023/06/28 02:46:40;;;;;;;7.32;2.10;;;16.10;99.90;;;;;;4963618;28;20445;-35
2023/06/28 02:49:07;;;;;;;4.13;2.25;;;16.10;99.90;;;;;;4965573;28;20061;-35
2023/06/28 02:51:32;;;;;;;4.70;1.80;;;16.10;99.90;;;;;;4964662;28;20051;-34
2023/06/28 02:53:59;;;;;;;3.97;1.70;;;16.10;99.90;;;;;;4965606;28;20054;-35
2023/06/28 02:56:25;;;;;;;4.22;1.88;;;16.10;99.90;;;;;;4952506;28;20519;-35
2023/06/28 02:58:51;;;;;;;7.03;2.45;;;16.10;99.90;;;;;;4965192;28;20477;-35
2023/06/28 03:01:18;;;;;;;6.60;2.03;;;16.00;99.90;;;;;;4971564;28;20065;-35
2023/06/28 03:03:44;;;;;;;5.97;2.00;;;16.00;99.90;;;;;;4965212;28;20049;-35
2023/06/28 03:06:09;;;;;;;4.80;1.75;;;16.00;99.90;;;;;;4967753;28;20093;-36
2023/06/28 03:08:35;;;;;;;3.83;1.83;;;15.90;99.90;;;;;;4970163;28;20133;-35
2023/06/28 03:11:01;;;;;;;6.03;1.75;;;15.90;99.90;;;;;;4967925;28;20512;-35
2023/06/28 03:13:26;;;;;;;9.00;2.70;;;15.90;99.90;;;;;;4967634;28;20098;-35
2023/06/28 03:15:52;;;;;;;4.35;1.83;;;15.90;99.90;;;;;;4969623;28;20074;-35
2023/06/28 03:18:18;;;;;;;5.22;1.95;;;15.90;99.90;;;;;;4967150;28;20165;-36
2023/06/28 03:20:43;;;;;;;5.72;1.77;;;15.80;99.90;;;;;;4970051;28;20506;-35
2023/06/28 03:23:09;;;;;;;3.65;1.60;;;15.80;99.90;;;;;;4968359;28;20054;-35
2023/06/28 03:25:35;;;;;;;4.95;2.03;;;15.70;99.90;;;;;;4970372;28;20485;-35
2023/06/28 03:28:02;;;;;;;4.45;2.33;;;15.70;99.90;;;;;;4971962;28;20055;-35
2023/06/28 03:30:27;;;;;;;5.22;1.58;;;15.70;99.90;;;;;;4969161;28;20460;-35
2023/06/28 03:32:53;;;;;;;2.72;1.40;;;15.70;99.90;;;;;;4969613;28;20063;-36
2023/06/28 03:35:19;;;;;;;4.45;1.35;;;15.80;99.90;;;;;;4971726;28;20049;-36
2023/06/28 03:37:55;;;;;;;3.40;1.25;;;15.80;99.90;;;;;;4966681;28;20081;-35
2023/06/28 03:40:21;;;;;;;5.03;1.55;;;15.70;99.90;;;;;;4954212;28;20489;-35
2023/06/28 03:42:48;;;;;;;5.22;1.42;;;15.80;99.90;;;;;;4953201;28;20055;-35
2023/06/28 03:45:17;;;;;;;2.22;1.20;;;15.70;99.90;;;;;;4962510;28;20500;-35
2023/06/28 03:47:43;;;;;;;2.88;1.50;;;15.80;99.90;;;;;;4969341;28;20049;-36
2023/06/28 03:50:09;;;;;;;3.72;1.17;;;15.70;99.90;;;;;;4968308;28;20397;-36
2023/06/28 03:52:35;;;;;;;3.40;1.60;;;15.70;99.90;;;;;;4968863;28;20058;-36
2023/06/28 03:55:02;;;;;;;2.42;1.20;;;15.70;99.90;;;;;;4966706;28;20058;-36
2023/06/28 03:57:28;;;;;;;3.42;1.60;;;15.70;99.90;;;;;;4971146;28;20079;-35
2023/06/28 03:59:54;;;;;;;4.53;1.42;;;15.70;99.90;;;;;;4968498;28;20077;-35
2023/06/28 04:02:20;;;;;;;2.25;1.25;;;15.60;99.90;;;;;;4968040;28;20374;-36
2023/06/28 04:04:46;;;;;;;2.58;1.17;;;15.60;99.90;;;;;;4951204;28;20055;-36
2023/06/28 04:07:11;;;;;;;2.60;0.98;;;15.60;99.90;;;;;;4968948;28;20113;-36
2023/06/28 04:09:38;;;;;;;3.15;1.30;;;15.50;99.90;;;;;;4966604;28;20054;-36
2023/06/28 04:12:04;;;;;;;2.75;1.10;;;15.50;99.90;;;;;;4971988;28;20054;-36
2023/06/28 04:14:30;;;;;;;3.20;1.67;;;15.50;99.90;;;;;;4964057;28;20058;-36
2023/06/28 04:16:56;;;;;;;2.40;1.20;;;15.50;99.90;;;;;;4965763;28;20051;-36
2023/06/28 04:19:21;;;;;;;3.55;0.88;;;15.50;99.90;;;;;;4969026;28;20133;-36
2023/06/28 04:21:47;;;;;;;4.18;1.33;;;15.50;99.90;;;;;;4971784;28;20054;-36
2023/06/28 04:24:13;;;;;;;3.80;1.45;;;15.50;99.90;;;;;;4965076;28;20081;-36
2023/06/28 04:26:38;;;;;;;2.67;1.20;;;15.50;99.90;;;;;;4968067;28;20784;-36
2023/06/28 04:29:04;;;;;;;3.55;0.90;;;15.50;99.90;;;;;;4968281;28;20386;-36
2023/06/28 04:31:30;;;;;;;2.38;1.20;;;15.50;99.90;;;;;;4968814;28;20507;-36
2023/06/28 04:33:55;;;;;;;3.22;1.02;;;15.50;99.90;;;;;;4966507;28;20050;-36
2023/06/28 04:36:25;;;;;;;3.58;1.40;;;15.50;99.90;;;;;;4970293;28;20062;-36
2023/06/28 04:38:54;;;;;;;2.72;1.38;;;15.60;99.90;;;;;;4967157;28;20081;-36
2023/06/28 04:41:22;;;;;;;3.60;1.30;;;15.60;99.90;;;;;;4973199;28;20237;-36
2023/06/28 04:43:49;;;;;;;2.15;1.30;;;15.60;99.90;;;;;;4962181;28;20109;-36
2023/06/28 04:46:14;;;;;;;3.63;1.27;;;15.60;99.90;;;;;;4968358;28;20055;-36
2023/06/28 04:48:42;;;;;;;4.28;1.20;;;15.60;99.90;;;;;;4966109;28;20056;-36
2023/06/28 04:51:08;;;;;;;2.20;1.00;;;15.60;99.90;;;;;;4961249;28;20207;-36
2023/06/28 04:53:34;;;;;;;4.15;1.20;;;15.60;99.90;;;;;;4967180;28;22059;-36
2023/06/28 04:56:02;;;;;;;2.75;1.33;;;15.60;99.90;;;;;;4965433;28;20408;-37
2023/06/28 04:58:28;;;;;;;5.05;1.60;;;15.60;99.90;;;;;;4966107;28;20058;-37
2023/06/28 05:00:56;;;;;;;4.05;1.42;;;15.60;99.90;;;;;;4966923;28;20054;-36
2023/06/28 05:03:26;;;;;;;5.93;1.85;;;15.50;99.90;;;;;;4969723;28;20054;-37
2023/06/28 05:05:54;;;;;;;4.57;1.75;;;15.50;99.90;;;;;;4959965;28;20070;-37
2023/06/28 05:08:20;;;;;;;12.38;1.88;;;15.50;99.90;;;;;;4968882;28;20055;-37
2023/06/28 05:10:45;;;;;;;4.70;1.55;;;15.50;99.90;;;;;;4967337;28;20058;-37
2023/06/28 05:13:11;;;;;;;4.05;1.63;;;15.50;99.90;;;;;;4965169;28;20055;-37
2023/06/28 05:15:37;;;;;;;4.93;1.75;;;15.50;99.90;;;;;;4962578;28;20050;-36
2023/06/28 05:18:03;;;;;;;6.22;2.15;;;15.50;99.90;;;;;;4965665;28;20059;-37
2023/06/28 05:20:29;;;;;;;5.82;1.77;;;15.50;99.90;;;;;;4971054;28;20469;-36
2023/06/28 05:23:15;;;;;;;5.55;1.88;;;15.50;99.90;;;;;;4966869;28;20058;-36
2023/06/28 05:25:43;;;;;;;6.47;1.70;;;15.40;99.90;;;;;;4964728;28;20512;-37
2023/06/28 05:28:14;;;;;;;5.45;1.77;;;15.30;99.90;;;;;;4966691;28;20065;-37
2023/06/28 05:30:42;;;;;;;5.05;2.10;;;15.30;99.90;;;;;;4963262;28;20123;-37
2023/06/28 05:33:08;;;;;;;8.27;2.13;;;15.30;99.90;;;;;;4949297;28;20050;-37
2023/06/28 05:35:35;;;;;;;5.50;2.10;;;15.30;99.90;;;;;;4945865;28;20137;-37
2023/06/28 05:38:05;;;;;;;5.18;2.67;;;15.30;99.90;;;;;;4965913;28;20082;-37
2023/06/28 05:40:32;;;;;;;6.20;2.17;;;15.30;99.90;;;;;;4962987;28;20479;-37
2023/06/28 05:42:58;;;;;;;4.30;2.20;;;15.20;99.90;;;;;;4967034;28;20051;-37
2023/06/28 05:45:29;;;;;;;5.60;2.08;;;15.20;99.90;;;;;;4965024;28;20061;-37
2023/06/28 05:47:55;;;;;;;5.90;2.20;;;15.20;99.90;;;;;;4942233;28;20054;-37
2023/06/28 05:50:21;;;;;;;4.50;2.10;;;15.20;99.90;;;;;;4958267;28;20055;-36
2023/06/28 05:52:48;;;;;;;7.35;2.10;;;15.20;99.90;;;;;;4967578;28;20058;-37
2023/06/28 05:55:14;;;;;;;5.07;2.50;;;15.20;99.90;;;;;;4957057;28;20105;-37
2023/06/28 05:57:40;;;;;;;8.93;2.95;;;15.20;99.90;;;;;;4969398;28;20054;-37
2023/06/28 06:00:07;;;;;;;8.13;2.85;;;15.20;99.90;;;;;;4964510;28;20054;-37
2023/06/28 06:02:33;;;;;;;6.57;2.80;;;15.20;99.90;;;;;;4966666;28;20063;-38
2023/06/28 06:05:01;;;;;;;5.55;2.20;;;15.20;99.90;;;;;;4965166;28;20097;-38
2023/06/28 06:07:27;;;;;;;5.57;2.50;;;15.20;99.90;;;;;;4968676;28;20130;-37
2023/06/28 06:09:54;;;;;;;6.63;3.05;;;15.20;99.90;;;;;;4966866;28;20495;-37
2023/06/28 06:12:21;;;;;;;7.28;2.08;;;15.20;99.90;;;;;;4949067;28;20560;-37
2023/06/28 06:14:51;;;;;;;7.80;2.47;;;15.30;99.90;;;;;;4945377;28;20051;-37
2023/06/28 06:17:17;;;;;;;7.05;2.38;;;15.30;99.90;;;;;;4946601;28;20501;-37
2023/06/28 06:19:43;;;;;;;6.25;2.00;;;15.40;99.90;;;;;;4942062;28;20058;-37
2023/06/28 06:22:08;;;;;;;6.38;2.30;;;15.40;99.90;;;;;;4950239;28;20043;-38
2023/06/28 06:24:34;;;;;;;5.95;2.40;;;15.40;99.90;;;;;;4945945;28;20416;-37
2023/06/28 06:27:00;;;;;;;8.07;2.40;;;15.40;99.90;;;;;;4949461;28;20063;-37
2023/06/28 06:29:26;;;;;;;6.00;2.00;;;15.50;99.90;;;;;;4943902;28;20043;-38
2023/06/28 06:31:51;;;;;;;5.13;1.95;;;15.50;99.90;;;;;;4945934;28;20451;-38
2023/06/28 06:34:17;;;;;;;6.38;2.05;;;15.50;99.90;;;;;;4946663;28;20059;-37
2023/06/28 06:36:43;;;;;;;5.03;2.40;;;15.50;99.90;;;;;;4949928;28;20051;-37
2023/06/28 06:39:09;;;;;;;5.65;1.60;;;15.60;99.90;;;;;;4955085;28;20047;-38
2023/06/28 06:41:34;;;;;;;5.00;2.13;;;15.60;99.90;;;;;;4952684;28;20564;-38
2023/06/28 06:44:00;;;;;;;5.30;1.77;;;15.60;99.90;;;;;;4941677;28;20047;-38
2023/06/28 06:46:26;;;;;;;4.68;2.08;;;15.60;99.90;;;;;;4948590;28;20083;-38
2023/06/28 06:48:51;;;;;;;6.13;2.42;;;15.60;99.90;;;;;;4949583;28;20059;-37
2023/06/28 06:51:19;;;;;;;4.57;1.90;;;15.50;99.90;;;;;;4948357;28;20150;-38
2023/06/28 06:53:44;;;;;;;4.43;2.08;;;15.60;99.90;;;;;;4951134;28;20054;-38
2023/06/28 06:56:10;;;;;;;6.75;2.35;;;15.60;99.90;;;;;;4947141;28;20059;-38
2023/06/28 06:58:36;;;;;;;4.65;1.98;;;15.60;99.90;;;;;;4954108;28;20445;-37
2023/06/28 07:01:02;;;;;;;8.85;2.33;;;15.60;99.90;;;;;;4952674;28;20101;-38
2023/06/28 07:03:28;;;;;;;7.72;2.30;;;15.60;99.90;;;;;;4942334;28;20051;-38
2023/06/28 07:05:53;;;;;;;4.68;2.13;;;15.70;99.90;;;;;;4953608;28;20059;-38
2023/06/28 07:08:19;;;;;;;6.97;2.55;;;15.70;99.90;;;;;;4950553;28;20059;-38
2023/06/28 07:10:45;;;;;;;4.50;2.10;;;15.70;99.90;;;;;;4951142;28;20042;-38
2023/06/28 07:13:10;;;;;;;5.18;1.75;;;15.70;99.90;;;;;;4971831;28;20046;-38
2023/06/28 07:15:36;;;;;;;4.47;2.10;;;15.70;99.90;;;;;;4969129;28;20055;-38
2023/06/28 07:18:03;;;;;;;6.35;2.50;;;15.70;99.90;;;;;;4957697;28;20070;-38
2023/06/28 07:20:29;;;;;;;7.63;2.47;;;15.80;99.90;;;;;;4958992;28;20062;-38
2023/06/28 07:22:54;;;;;;;9.40;2.35;;;15.80;99.90;;;;;;4959125;28;20054;-38
2023/06/28 07:25:20;;;;;;;6.68;2.25;;;15.80;99.90;;;;;;4958522;28;20051;-37
2023/06/28 07:27:46;;;;;;;8.23;2.67;;;15.80;99.90;;;;;;4960347;28;20141;-38
2023/06/28 07:30:12;;;;;;;7.72;2.75;;;15.80;99.90;;;;;;4959666;28;20043;-38
2023/06/28 07:32:38;;;;;;;9.85;2.60;;;15.80;99.90;;;;;;4963585;28;20054;-37
2023/06/28 07:35:04;;;;;;;6.70;2.25;;;15.80;99.90;;;;;;4964000;28;20081;-38
2023/06/28 07:37:30;;;;;;;6.75;2.28;;;15.90;99.90;;;;;;4969365;28;20054;-38
2023/06/28 07:39:58;;;;;;;5.65;2.55;;;15.90;99.90;;;;;;4964272;28;20047;-38
2023/06/28 07:42:24;;;;;;;9.27;2.83;;;15.90;99.90;;;;;;4970274;28;20062;-37
2023/06/28 07:44:50;;;;;;;4.53;2.28;;;16.00;99.90;;;;;;4943877;28;20046;-38
2023/06/28 07:47:16;;;;;;;6.40;2.42;;;16.00;99.90;;;;;;4957941;28;20105;-38
2023/06/28 07:49:42;;;;;;;6.43;2.80;;;16.00;99.90;;;;;;4958645;28;20562;-38
2023/06/28 07:52:07;;;;;;;6.13;2.63;;;16.00;99.90;;;;;;4965787;28;20078;-38
2023/06/28 07:54:33;;;;;;;5.70;2.60;;;16.10;99.90;;;;;;4966334;28;20046;-37
2023/06/28 07:56:59;;;;;;;5.60;2.28;;;16.10;99.90;;;;;;4962887;28;20043;-38
2023/06/28 07:59:25;;;;;;;9.82;3.08;;;16.20;99.90;;;;;;4970492;28;20487;-38
2023/06/28 08:01:50;;;;;;;6.93;2.80;;;16.20;99.90;;;;;;4968317;28;20063;-37
2023/06/28 08:04:16;;;;;;;7.53;3.13;;;16.20;99.90;;;;;;4969655;28;20165;-38
2023/06/28 08:06:43;;;;;;;5.90;2.58;;;16.20;99.90;;;;;;4963310;28;20171;-38
2023/06/28 08:09:10;;;;;;;6.75;2.78;;;16.20;99.90;;;;;;4968823;28;20053;-38
2023/06/28 08:11:35;;;;;;;8.20;2.78;;;16.30;99.90;;;;;;4956163;28;20051;-37
2023/06/28 08:14:01;;;;;;;8.80;3.15;;;16.30;99.90;;;;;;4964290;28;20390;-38
2023/06/28 08:16:27;;;;;;;7.95;2.83;;;16.30;99.90;;;;;;4945769;28;20126;-38
2023/06/28 08:18:53;;;;;;;9.10;3.22;;;16.20;99.90;;;;;;4971045;28;20189;-38
2023/06/28 08:21:19;;;;;;;5.47;2.92;;;16.20;99.90;;;;;;4965204;28;20050;-38
2023/06/28 08:23:44;;;;;;;11.43;3.67;;;16.20;99.90;;;;;;4965668;28;20047;-37
2023/06/28 08:26:10;;;;;;;11.02;3.95;;;16.20;99.90;;;;;;4970097;28;20063;-37
2023/06/28 08:28:36;;;;;;;8.10;3.38;;;16.10;99.90;;;;;;4963087;28;20145;-38
2023/06/28 08:31:02;;;;;;;7.85;3.85;;;16.10;99.90;;;;;;4957580;28;20504;-38
2023/06/28 08:33:27;;;;;;;6.63;3.17;;;16.10;99.90;;;;;;4962612;28;20137;-38
2023/06/28 08:35:53;;;;;;;11.02;3.40;;;16.20;99.90;;;;;;4958562;28;20050;-38
2023/06/28 08:38:19;;;;;;;9.32;3.95;;;16.10;99.90;;;;;;4962324;28;20054;-38
2023/06/28 08:40:45;;;;;;;10.43;4.00;;;16.20;99.90;;;;;;4961314;28;20057;-37
2023/06/28 08:43:15;;;;;;;9.07;3.95;;;16.20;99.90;;;;;;4942831;28;20117;-38
2023/06/28 08:45:43;;;;;;;10.27;4.05;;;16.20;99.90;;;;;;4961023;28;20420;-37
2023/06/28 08:48:09;;;;;;;7.57;4.05;;;16.20;99.90;;;;;;4959632;28;20043;-37
2023/06/28 08:50:39;;;;;;;9.38;4.00;;;16.20;99.90;;;;;;4947696;28;20053;-38
2023/06/28 08:53:09;;;;;;;7.50;3.35;;;16.30;99.90;;;;;;4962777;28;20093;-38
2023/06/28 08:55:38;;;;;;;10.60;4.38;;;16.30;99.90;;;;;;4966498;28;20134;-38
2023/06/28 08:58:06;;;;;;;8.57;4.63;;;16.30;99.90;;;;;;4966747;28;20067;-38
2023/06/28 09:00:32;;;;;;;8.48;4.00;;;16.30;99.90;;;;;;4964035;28;21198;-38
2023/06/28 09:02:58;;;;;;;9.82;3.75;;;16.30;99.90;;;;;;4964640;28;20125;-38
2023/06/28 09:05:24;;;;;;;7.57;2.88;;;16.30;99.90;;;;;;4961973;28;20508;-38
2023/06/28 09:07:54;;;;;;;10.55;4.13;;;16.40;99.90;;;;;;4957126;28;20396;-38
2023/06/28 09:10:20;;;;;;;7.38;4.10;;;16.40;99.90;;;;;;4961249;28;20039;-38
2023/06/28 09:12:47;;;;;;;7.57;3.95;;;16.40;99.90;;;;;;4948522;28;20047;-38
2023/06/28 09:15:16;;;;;;;10.60;4.25;;;16.40;99.90;;;;;;4966036;28;20065;-38
2023/06/28 09:17:42;;;;;;;11.05;4.55;;;16.50;99.90;;;;;;4963998;28;20078;-38
2023/06/28 09:20:17;;;;;;;7.38;4.47;;;16.50;99.90;;;;;;4960256;28;20117;-38
2023/06/28 09:22:53;;;;;;;9.70;5.10;;;16.50;99.90;;;;;;4968135;28;20504;-38
2023/06/28 09:25:19;;;;;;;7.85;4.63;;;16.50;99.90;;;;;;4972410;28;20050;-37
2023/06/28 09:27:45;;;;;;;12.35;5.70;;;16.60;99.90;;;;;;4969535;28;20054;-38
2023/06/28 09:30:17;;;;;;;7.10;4.32;;;16.60;99.90;;;;;;4966896;28;20386;-38
2023/06/28 09:32:45;;;;;;;8.15;4.97;;;16.70;99.90;;;;;;4961248;28;20494;-38
2023/06/28 09:35:11;;;;;;;9.63;4.85;;;16.80;99.90;;;;;;4968671;28;20442;-38
2023/06/28 09:37:38;;;;;;;9.93;5.60;;;16.90;99.90;;;;;;4967447;28;20121;-38
2023/06/28 09:40:06;;;;;;;9.50;4.85;;;16.90;99.90;;;;;;4967971;28;20042;-38
2023/06/28 09:42:32;;;;;;;7.75;4.65;;;17.00;99.90;;;;;;4965550;28;20054;-37
2023/06/28 09:44:57;;;;;;;8.27;4.97;;;17.00;99.90;;;;;;4968813;28;20062;-38
2023/06/28 09:47:32;;;;;;;9.75;5.22;;;17.00;99.90;;;;;;4968649;28;20542;-37
2023/06/28 09:50:02;;;;;;;7.82;4.85;;;17.00;99.90;;;;;;4968469;28;20062;-38
2023/06/28 09:52:34;;;;;;;7.82;5.15;;;17.00;99.90;;;;;;4968466;28;20046;-38
2023/06/28 09:55:00;;;;;;;;;;;17.00;99.90;;;;;;4969818;28;20051;-38
2023/06/28 09:57:27;;;;;;;7.95;4.70;;;16.90;99.90;;;;;;4964178;28;20392;-37
2023/06/28 09:59:54;;;;;;;9.68;5.15;;;16.90;99.90;;;;;;4965236;28;20082;-38
2023/06/28 10:02:23;;;;;;;8.60;5.25;;;16.90;99.90;;;;;;4971585;28;20054;-38
2023/06/28 10:04:51;;;;;;;8.93;5.45;;;16.90;99.90;;;;;;4968693;28;20063;-38
2023/06/28 10:07:18;;;;;;;9.07;5.25;;;16.90;99.90;;;;;;4967024;28;20054;-38
2023/06/28 10:09:44;;;;;;;8.40;5.97;;;17.00;99.90;;;;;;4962340;28;20062;-38
2023/06/28 10:12:17;;;;;;;11.70;6.10;;;17.00;99.90;;;;;;4967590;28;20081;-37
2023/06/28 10:14:49;;;;;;;12.05;6.35;;;17.00;99.90;;;;;;4962970;28;20053;-38
2023/06/28 10:17:16;;;;;;;10.10;6.57;;;17.10;99.90;;;;;;4964880;28;20253;-38
2023/06/28 10:19:43;;;;;;;12.35;6.60;;;17.10;99.90;;;;;;4961716;28;20039;-38
2023/06/28 10:22:09;;;;;;;11.07;6.45;;;17.10;99.90;;;;;;4963251;28;20180;-38
2023/06/28 10:24:38;;;;;;;10.90;6.78;;;17.20;99.90;;;;;;4964501;28;20125;-37
2023/06/28 10:27:05;;;;;;;7.82;5.50;;;17.20;99.90;;;;;;4973273;28;20061;-38
2023/06/28 10:29:31;;;;;;;11.30;7.13;;;17.10;99.90;;;;;;4970585;28;20042;-38
2023/06/28 10:31:57;;;;;;;11.60;7.28;;;17.20;99.90;;;;;;4970643;28;20085;-38
2023/06/28 10:34:23;;;;;;;11.23;7.00;;;17.10;99.90;;;;;;4970411;28;20386;-38
2023/06/28 10:36:49;;;;;;;12.18;7.57;;;17.10;99.90;;;;;;4970071;28;20055;-37
2023/06/28 10:39:16;;;;;;;10.43;7.00;;;17.10;99.90;;;;;;4972484;28;20058;-38
2023/06/28 10:41:42;;;;;;;12.43;7.22;;;17.10;99.90;;;;;;4969269;28;20046;-38
2023/06/28 10:44:08;;;;;;;11.32;7.43;;;17.10;99.90;;;;;;4975042;28;20078;-38
2023/06/28 10:46:34;;;;;;;13.63;7.70;;;17.20;99.90;;;;;;4971358;28;20465;-38
2023/06/28 10:49:00;;;;;;;12.80;7.68;;;17.10;99.90;;;;;;4971844;28;20110;-38
2023/06/28 10:51:27;;;;;;;14.15;8.45;;;17.20;99.90;;;;;;4948857;28;20053;-38
2023/06/28 10:54:15;;;;;;;13.02;7.95;;;17.20;99.90;;;;;;4966420;28;20620;-38
2023/06/28 10:56:48;;;;;;;14.18;8.93;;;17.20;99.90;;;;;;4968626;28;20051;-38
2023/06/28 10:59:14;;;;;;;11.95;8.18;;;17.20;99.90;;;;;;4964469;28;20139;-38
2023/06/28 11:01:48;;;;;;;12.02;7.40;;;17.20;99.90;;;;;;4970315;28;20479;-38
2023/06/28 11:04:19;;;;;;;12.55;8.27;;;17.20;99.90;;;;;;4971189;28;20469;-38
2023/06/28 11:06:46;;;;;;;14.77;8.02;;;17.30;99.90;;;;;;4969147;28;20146;-37
2023/06/28 11:09:16;;;;;;;14.38;8.95;;;17.40;99.90;;;;;;4980223;28;20054;-38
2023/06/28 11:11:54;;;;;;;19.20;8.95;;;17.50;99.90;;;;;;4971093;28;20061;-38
2023/06/28 11:14:25;;;;;;;13.18;7.88;;;17.60;99.90;;;;;;4961825;28;20051;-38
2023/06/28 11:16:52;;;;;;;17.75;8.40;;;17.70;99.90;;;;;;4967579;28;20169;-38
2023/06/28 11:19:24;;;;;;;13.32;8.52;;;17.80;99.90;;;;;;4972754;28;20580;-38
2023/06/28 11:21:58;;;;;;;15.13;8.65;;;17.90;99.90;;;;;;4971061;28;20061;-38
2023/06/28 11:24:33;;;;;;;15.10;9.60;;;18.00;99.90;;;;;;4965337;28;20586;-38
2023/06/28 11:26:59;;;;;;;17.15;8.25;;;18.00;99.90;;;;;;4972024;28;20676;-38
2023/06/28 11:29:25;;;;;;;14.25;7.20;;;18.20;99.90;;;;;;4956268;28;20142;-38
2023/06/28 11:32:01;;;;;;;20.30;9.30;;;18.20;99.90;;;;;;4967768;28;20038;-38
2023/06/28 11:34:28;;;;;;;14.07;7.68;;;18.20;99.90;;;;;;4974758;28;20047;-38
2023/06/28 11:36:55;;;;;;;15.95;8.82;;;18.30;99.90;;;;;;4969542;28;20047;-38
2023/06/28 11:39:22;;;;;;;19.10;9.95;;;18.20;99.90;;;;;;4969866;28;20054;-39
2023/06/28 11:41:48;;;;;;;13.43;7.70;;;18.10;99.90;;;;;;4970288;28;20050;-38
2023/06/28 11:44:14;;;;;;;16.27;9.18;;;18.10;99.90;;;;;;4965071;28;20130;-37
2023/06/28 11:46:45;;;;;;;14.10;8.38;;;18.00;99.90;;;;;;4963488;28;20054;-38
2023/06/28 11:49:11;;;;;;;15.60;9.00;;;18.00;99.90;;;;;;4966654;28;20055;-38
2023/06/28 11:51:37;;;;;;;15.52;8.80;;;18.00;99.90;;;;;;4966721;28;20046;-38
2023/06/28 11:54:07;;;;;;;16.55;8.43;;;18.00;99.90;;;;;;4970250;28;20497;-38
2023/06/28 11:56:41;;;;;;;14.75;8.45;;;18.00;99.90;;;;;;4970370;28;20070;-38
2023/06/28 11:59:16;;;;;;;13.23;8.75;;;18.00;99.90;;;;;;4965626;28;20055;-38
2023/06/28 12:01:42;;;;;;;17.40;9.43;;;18.00;99.90;;;;;;4966106;28;20063;-39
2023/06/28 12:04:19;;;;;;;15.85;7.93;;;18.00;99.90;;;;;;4969901;28;20069;-38
2023/06/28 12:06:46;;;;;;;13.70;7.97;;;18.00;99.90;;;;;;4970467;28;20065;-37
2023/06/28 12:09:18;;;;;;;15.05;7.97;;;18.00;99.90;;;;;;4966687;28;20131;-38
2023/06/28 12:11:58;;;;;;;12.05;7.95;;;18.00;99.90;;;;;;4970134;28;20409;-37
2023/06/28 12:14:28;;;;;;;17.90;9.15;;;18.20;99.90;;;;;;4964665;28;20151;-37
2023/06/28 12:16:55;;;;;;;11.80;7.00;;;18.30;99.90;;;;;;4968493;28;20050;-38
2023/06/28 12:19:27;;;;;;;15.30;8.27;;;18.30;99.90;;;;;;4969533;28;20480;-38
2023/06/28 12:21:54;;;;;;;16.02;7.85;;;18.30;99.90;;;;;;4969822;28;20390;-38
2023/06/28 12:24:26;;;;;;;15.15;8.50;;;18.40;99.90;;;;;;4965474;28;20089;-38
2023/06/28 12:26:54;;;;;;;14.40;7.57;;;18.40;99.90;;;;;;4968678;28;20137;-37
2023/06/28 12:29:21;;;;;;;14.85;8.35;;;18.50;99.90;;;;;;4968072;28;20055;-38
2023/06/28 12:31:49;;;;;;;16.85;8.15;;;18.50;99.90;;;;;;4964196;28;20408;-38
2023/06/28 12:34:25;;;;;;;16.10;8.70;;;18.50;99.90;;;;;;4948790;28;20137;-37
2023/06/28 12:36:56;;;;;;;18.45;8.13;;;18.50;99.90;;;;;;4967752;28;20156;-38
2023/06/28 12:39:26;;;;;;;14.75;7.95;;;18.50;99.90;;;;;;4967018;28;20146;-38
2023/06/28 12:42:05;;;;;;;16.48;7.85;;;18.60;99.90;;;;;;4966632;28;20079;-38
2023/06/28 12:44:46;;;;;;;15.55;8.00;;;18.60;99.90;;;;;;4970303;28;20504;-39